sensor_id;sensor_type;location;lat;lon;timestamp;pressure;altitude;pressure_sealevel;temperature;humidity
74218;BME280;62579;47.288;18.646;2022-12-07T00:00:25;99891.38;;;3.32;91.78
74218;BME280;62579;47.288;18.646;2022-12-07T00:02:50;99888.56;;;3.36;91.88
74218;BME280;62579;47.288;18.646;2022-12-07T00:05:15;99895.59;;;3.33;92.11
74218;BME280;62579;47.288;18.646;2022-12-07T00:07:41;99897.94;;;3.22;92.61
74218;BME280;62579;47.288;18.646;2022-12-07T00:10:06;99888.03;;;3.10;93.20
74218;BME280;62579;47.288;18.646;2022-12-07T00:12:32;99892.66;;;3.10;93.04
74218;BME280;62579;47.288;18.646;2022-12-07T00:14:57;99881.44;;;3.02;92.13
74218;BME280;62579;47.288;18.646;2022-12-07T00:17:22;99880.84;;;2.67;92.70
74218;BME280;62579;47.288;18.646;2022-12-07T00:19:47;99884.91;;;2.72;92.80
74218;BME280;62579;47.288;18.646;2022-12-07T00:22:13;99884.06;;;2.84;92.33
74218;BME280;62579;47.288;18.646;2022-12-07T00:24:38;99886.16;;;2.89;91.95
74218;BME280;62579;47.288;18.646;2022-12-07T00:27:03;99886.00;;;2.83;92.02
74218;BME280;62579;47.288;18.646;2022-12-07T00:29:28;99878.47;;;2.69;92.38
74218;BME280;62579;47.288;18.646;2022-12-07T00:31:54;99878.03;;;2.71;92.70
74218;BME280;62579;47.288;18.646;2022-12-07T00:34:20;99882.09;;;2.75;92.20
74218;BME280;62579;47.288;18.646;2022-12-07T00:36:46;99875.53;;;2.76;91.73
74218;BME280;62579;47.288;18.646;2022-12-07T00:39:12;99879.16;;;2.82;91.77
74218;BME280;62579;47.288;18.646;2022-12-07T00:41:37;99879.84;;;2.74;92.12
74218;BME280;62579;47.288;18.646;2022-12-07T00:44:03;99876.09;;;2.71;92.27
74218;BME280;62579;47.288;18.646;2022-12-07T00:46:29;99872.22;;;2.72;92.56
74218;BME280;62579;47.288;18.646;2022-12-07T00:48:54;99871.91;;;2.70;92.48
74218;BME280;62579;47.288;18.646;2022-12-07T00:51:22;99866.25;;;2.68;92.42
74218;BME280;62579;47.288;18.646;2022-12-07T00:53:48;99875.56;;;2.55;92.93
74218;BME280;62579;47.288;18.646;2022-12-07T00:56:16;99869.41;;;2.45;93.30
74218;BME280;62579;47.288;18.646;2022-12-07T00:58:42;99874.31;;;2.16;94.15
74218;BME280;62579;47.288;18.646;2022-12-07T01:01:09;99874.25;;;2.07;95.04
74218;BME280;62579;47.288;18.646;2022-12-07T01:03:35;99874.72;;;2.36;93.45
74218;BME280;62579;47.288;18.646;2022-12-07T01:06:01;99870.41;;;2.38;93.07
74218;BME280;62579;47.288;18.646;2022-12-07T01:08:27;99872.97;;;2.42;92.64
74218;BME280;62579;47.288;18.646;2022-12-07T01:11:01;99869.91;;;2.53;91.86
74218;BME280;62579;47.288;18.646;2022-12-07T01:13:27;99862.97;;;2.42;92.29
74218;BME280;62579;47.288;18.646;2022-12-07T01:15:56;99867.84;;;2.35;92.24
74218;BME280;62579;47.288;18.646;2022-12-07T01:18:23;99863.53;;;2.37;92.20
74218;BME280;62579;47.288;18.646;2022-12-07T01:21:16;99869.97;;;2.40;91.29
74218;BME280;62579;47.288;18.646;2022-12-07T01:23:42;99868.12;;;2.28;92.46
74218;BME280;62579;47.288;18.646;2022-12-07T01:26:14;99859.62;;;2.29;92.13
74218;BME280;62579;47.288;18.646;2022-12-07T01:28:39;99873.78;;;2.30;91.82
74218;BME280;62579;47.288;18.646;2022-12-07T01:31:08;99872.44;;;2.25;92.10
74218;BME280;62579;47.288;18.646;2022-12-07T01:33:36;99869.59;;;2.29;91.96
74218;BME280;62579;47.288;18.646;2022-12-07T01:38:29;99851.84;;;2.22;92.29
74218;BME280;62579;47.288;18.646;2022-12-07T01:40:55;99855.69;;;2.21;92.73
74218;BME280;62579;47.288;18.646;2022-12-07T01:43:22;99857.22;;;2.01;94.24
74218;BME280;62579;47.288;18.646;2022-12-07T01:45:48;99862.69;;;1.97;94.88
74218;BME280;62579;47.288;18.646;2022-12-07T01:48:16;99852.22;;;2.12;93.91
74218;BME280;62579;47.288;18.646;2022-12-07T01:50:45;99852.97;;;2.12;94.24
74218;BME280;62579;47.288;18.646;2022-12-07T01:53:12;99846.09;;;2.11;94.55
74218;BME280;62579;47.288;18.646;2022-12-07T01:55:42;99853.69;;;2.13;94.52
74218;BME280;62579;47.288;18.646;2022-12-07T01:58:08;99849.34;;;2.06;94.14
74218;BME280;62579;47.288;18.646;2022-12-07T02:00:34;99853.28;;;2.14;93.90
74218;BME280;62579;47.288;18.646;2022-12-07T02:03:05;99854.41;;;2.04;94.66
74218;BME280;62579;47.288;18.646;2022-12-07T02:05:34;99842.41;;;2.18;93.37
74218;BME280;62579;47.288;18.646;2022-12-07T02:08:00;99837.78;;;2.18;93.48
74218;BME280;62579;47.288;18.646;2022-12-07T02:10:29;99842.28;;;2.21;93.58
74218;BME280;62579;47.288;18.646;2022-12-07T02:12:58;99838.53;;;2.19;93.54
74218;BME280;62579;47.288;18.646;2022-12-07T02:15:33;99839.72;;;2.18;93.82
74218;BME280;62579;47.288;18.646;2022-12-07T02:18:22;99843.59;;;2.17;93.95
74218;BME280;62579;47.288;18.646;2022-12-07T02:23:49;99836.59;;;2.19;93.17
74218;BME280;62579;47.288;18.646;2022-12-07T02:29:34;99842.84;;;2.16;93.72
74218;BME280;62579;47.288;18.646;2022-12-07T02:32:15;99834.37;;;1.96;94.96
74218;BME280;62579;47.288;18.646;2022-12-07T02:34:49;99836.72;;;1.94;94.88
74218;BME280;62579;47.288;18.646;2022-12-07T02:37:36;99833.75;;;1.92;95.23
74218;BME280;62579;47.288;18.646;2022-12-07T02:40:12;99838.84;;;1.99;95.20
74218;BME280;62579;47.288;18.646;2022-12-07T02:42:46;99839.19;;;2.01;94.87
74218;BME280;62579;47.288;18.646;2022-12-07T02:45:15;99834.41;;;2.05;94.53
74218;BME280;62579;47.288;18.646;2022-12-07T02:47:43;99844.53;;;2.01;94.93
74218;BME280;62579;47.288;18.646;2022-12-07T02:50:10;99846.97;;;2.08;95.13
74218;BME280;62579;47.288;18.646;2022-12-07T02:52:35;99844.41;;;2.05;95.36
74218;BME280;62579;47.288;18.646;2022-12-07T02:55:01;99850.81;;;2.07;95.28
74218;BME280;62579;47.288;18.646;2022-12-07T03:00:09;99840.28;;;2.13;95.01
74218;BME280;62579;47.288;18.646;2022-12-07T03:05:26;99833.34;;;2.03;95.66
74218;BME280;62579;47.288;18.646;2022-12-07T03:10:59;99820.13;;;1.65;97.14
74218;BME280;62579;47.288;18.646;2022-12-07T03:13:47;99828.75;;;2.03;95.29
74218;BME280;62579;47.288;18.646;2022-12-07T03:18:48;99820.38;;;2.01;94.55
74218;BME280;62579;47.288;18.646;2022-12-07T03:21:20;99824.38;;;1.97;94.59
74218;BME280;62579;47.288;18.646;2022-12-07T03:23:57;99823.50;;;2.00;94.52
74218;BME280;62579;47.288;18.646;2022-12-07T03:26:30;99828.81;;;1.91;95.54
74218;BME280;62579;47.288;18.646;2022-12-07T03:29:01;99833.31;;;1.94;95.45
74218;BME280;62579;47.288;18.646;2022-12-07T03:31:32;99833.31;;;1.94;95.38
74218;BME280;62579;47.288;18.646;2022-12-07T03:34:07;99835.09;;;1.97;95.50
74218;BME280;62579;47.288;18.646;2022-12-07T03:39:23;99835.38;;;1.90;96.22
74218;BME280;62579;47.288;18.646;2022-12-07T03:41:50;99827.13;;;1.84;97.00
74218;BME280;62579;47.288;18.646;2022-12-07T03:44:17;99828.25;;;1.96;96.33
74218;BME280;62579;47.288;18.646;2022-12-07T03:50:09;99844.66;;;1.98;95.92
74218;BME280;62579;47.288;18.646;2022-12-07T03:52:42;99843.09;;;2.09;94.97
74218;BME280;62579;47.288;18.646;2022-12-07T03:55:20;99842.28;;;2.00;95.79
74218;BME280;62579;47.288;18.646;2022-12-07T03:57:50;99835.75;;;2.01;96.16
74218;BME280;62579;47.288;18.646;2022-12-07T04:00:17;99840.34;;;2.00;96.01
74218;BME280;62579;47.288;18.646;2022-12-07T04:02:43;99830.44;;;2.10;95.59
74218;BME280;62579;47.288;18.646;2022-12-07T04:05:09;99832.66;;;2.11;95.36
74218;BME280;62579;47.288;18.646;2022-12-07T04:07:35;99828.47;;;2.10;95.70
74218;BME280;62579;47.288;18.646;2022-12-07T04:10:00;99828.47;;;2.10;95.24
74218;BME280;62579;47.288;18.646;2022-12-07T04:12:25;99821.06;;;2.14;95.20
74218;BME280;62579;47.288;18.646;2022-12-07T04:14:51;99818.78;;;2.13;95.43
74218;BME280;62579;47.288;18.646;2022-12-07T04:17:16;99819.84;;;2.15;95.67
74218;BME280;62579;47.288;18.646;2022-12-07T04:19:41;99811.84;;;2.24;95.31
74218;BME280;62579;47.288;18.646;2022-12-07T04:22:07;99807.06;;;2.19;95.55
74218;BME280;62579;47.288;18.646;2022-12-07T04:24:33;99815.41;;;2.21;95.80
74218;BME280;62579;47.288;18.646;2022-12-07T04:26:58;99818.28;;;2.27;95.96
74218;BME280;62579;47.288;18.646;2022-12-07T04:29:23;99811.44;;;2.26;96.06
74218;BME280;62579;47.288;18.646;2022-12-07T04:31:49;99808.25;;;2.18;95.80
74218;BME280;62579;47.288;18.646;2022-12-07T04:34:15;99808.25;;;2.18;95.81
74218;BME280;62579;47.288;18.646;2022-12-07T04:36:41;99808.69;;;2.17;95.89
74218;BME280;62579;47.288;18.646;2022-12-07T04:39:17;99807.81;;;2.20;96.06
74218;BME280;62579;47.288;18.646;2022-12-07T04:41:43;99807.62;;;2.14;96.14
74218;BME280;62579;47.288;18.646;2022-12-07T04:44:08;99810.06;;;2.21;95.70
74218;BME280;62579;47.288;18.646;2022-12-07T04:46:33;99824.06;;;2.47;94.12
74218;BME280;62579;47.288;18.646;2022-12-07T04:48:59;99830.31;;;2.44;94.36
74218;BME280;62579;47.288;18.646;2022-12-07T04:51:26;99821.69;;;2.49;94.33
74218;BME280;62579;47.288;18.646;2022-12-07T04:53:52;99825.69;;;2.45;94.94
74218;BME280;62579;47.288;18.646;2022-12-07T04:56:18;99824.78;;;2.38;95.89
74218;BME280;62579;47.288;18.646;2022-12-07T04:58:45;99835.50;;;2.38;96.53
74218;BME280;62579;47.288;18.646;2022-12-07T05:01:12;99832.25;;;2.43;96.60
74218;BME280;62579;47.288;18.646;2022-12-07T05:03:38;99829.88;;;2.46;96.77
74218;BME280;62579;47.288;18.646;2022-12-07T05:06:04;99834.66;;;2.51;96.68
74218;BME280;62579;47.288;18.646;2022-12-07T05:08:30;99832.59;;;2.55;96.63
74218;BME280;62579;47.288;18.646;2022-12-07T05:10:57;99836.47;;;2.54;96.84
74218;BME280;62579;47.288;18.646;2022-12-07T05:13:22;99833.34;;;2.55;96.63
74218;BME280;62579;47.288;18.646;2022-12-07T05:15:48;99835.06;;;2.40;97.01
74218;BME280;62579;47.288;18.646;2022-12-07T05:18:13;99842.31;;;2.30;97.41
74218;BME280;62579;47.288;18.646;2022-12-07T05:20:39;99845.19;;;2.36;96.75
74218;BME280;62579;47.288;18.646;2022-12-07T05:23:05;99850.13;;;2.37;96.58
74218;BME280;62579;47.288;18.646;2022-12-07T05:25:30;99843.56;;;2.38;96.42
74218;BME280;62579;47.288;18.646;2022-12-07T05:27:56;99852.84;;;2.47;95.78
74218;BME280;62579;47.288;18.646;2022-12-07T05:30:23;99851.94;;;2.40;96.40
74218;BME280;62579;47.288;18.646;2022-12-07T05:32:48;99853.72;;;2.43;96.40
74218;BME280;62579;47.288;18.646;2022-12-07T05:35:13;99852.41;;;2.48;96.37
74218;BME280;62579;47.288;18.646;2022-12-07T05:37:39;99842.88;;;2.56;96.09
74218;BME280;62579;47.288;18.646;2022-12-07T05:40:05;99848.59;;;2.58;95.84
74218;BME280;62579;47.288;18.646;2022-12-07T05:42:31;99839.31;;;2.59;96.04
74218;BME280;62579;47.288;18.646;2022-12-07T05:44:56;99834.66;;;2.51;96.73
74218;BME280;62579;47.288;18.646;2022-12-07T05:47:21;99839.34;;;2.28;97.74
74218;BME280;62579;47.288;18.646;2022-12-07T05:49:46;99836.09;;;2.33;97.53
74218;BME280;62579;47.288;18.646;2022-12-07T05:52:12;99837.56;;;2.34;97.36
74218;BME280;62579;47.288;18.646;2022-12-07T05:54:37;99839.25;;;2.41;96.90
74218;BME280;62579;47.288;18.646;2022-12-07T05:57:03;99846.56;;;2.40;96.96
74218;BME280;62579;47.288;18.646;2022-12-07T05:59:28;99844.34;;;2.48;96.47
74218;BME280;62579;47.288;18.646;2022-12-07T06:02:09;99845.56;;;2.47;96.34
74218;BME280;62579;47.288;18.646;2022-12-07T06:04:38;99841.66;;;2.48;96.58
74218;BME280;62579;47.288;18.646;2022-12-07T06:07:05;99845.28;;;2.54;96.29
74218;BME280;62579;47.288;18.646;2022-12-07T06:09:31;99846.78;;;2.55;96.45
74218;BME280;62579;47.288;18.646;2022-12-07T06:11:57;99843.53;;;2.60;96.03
74218;BME280;62579;47.288;18.646;2022-12-07T06:14:41;99849.78;;;2.57;95.82
74218;BME280;62579;47.288;18.646;2022-12-07T06:17:07;99849.41;;;2.46;95.98
74218;BME280;62579;47.288;18.646;2022-12-07T06:19:33;99843.28;;;2.46;96.23
74218;BME280;62579;47.288;18.646;2022-12-07T06:21:58;99840.91;;;2.48;96.28
74218;BME280;62579;47.288;18.646;2022-12-07T06:24:23;99852.62;;;2.63;95.79
74218;BME280;62579;47.288;18.646;2022-12-07T06:26:49;99852.88;;;2.56;95.63
74218;BME280;62579;47.288;18.646;2022-12-07T06:29:15;99854.25;;;2.60;95.77
74218;BME280;62579;47.288;18.646;2022-12-07T06:31:40;99852.00;;;2.59;95.65
74218;BME280;62579;47.288;18.646;2022-12-07T06:34:09;99855.03;;;2.61;95.69
74218;BME280;62579;47.288;18.646;2022-12-07T06:36:34;99849.06;;;2.66;95.47
74218;BME280;62579;47.288;18.646;2022-12-07T06:39:00;99849.06;;;2.66;95.39
74218;BME280;62579;47.288;18.646;2022-12-07T06:41:26;99853.38;;;2.63;95.49
74218;BME280;62579;47.288;18.646;2022-12-07T06:43:51;99851.44;;;2.64;95.84
74218;BME280;62579;47.288;18.646;2022-12-07T06:46:16;99851.16;;;2.40;96.72
74218;BME280;62579;47.288;18.646;2022-12-07T06:48:42;99855.25;;;2.45;97.16
74218;BME280;62579;47.288;18.646;2022-12-07T06:51:09;99860.34;;;2.52;96.63
74218;BME280;62579;47.288;18.646;2022-12-07T06:53:35;99856.03;;;2.54;96.45
74218;BME280;62579;47.288;18.646;2022-12-07T06:56:00;99855.16;;;2.57;96.17
74218;BME280;62579;47.288;18.646;2022-12-07T06:58:25;99857.53;;;2.55;96.13
74218;BME280;62579;47.288;18.646;2022-12-07T07:00:51;99852.88;;;2.56;95.93
74218;BME280;62579;47.288;18.646;2022-12-07T07:03:16;99854.00;;;2.67;95.63
74218;BME280;62579;47.288;18.646;2022-12-07T07:05:42;99863.37;;;2.63;95.25
74218;BME280;62579;47.288;18.646;2022-12-07T07:08:08;99857.66;;;2.52;95.78
74218;BME280;62579;47.288;18.646;2022-12-07T07:10:33;99864.37;;;2.56;95.65
74218;BME280;62579;47.288;18.646;2022-12-07T07:12:59;99868.12;;;2.59;95.21
74218;BME280;62579;47.288;18.646;2022-12-07T07:15:24;99869.16;;;2.52;95.71
74218;BME280;62579;47.288;18.646;2022-12-07T07:17:50;99861.09;;;2.52;95.32
74218;BME280;62579;47.288;18.646;2022-12-07T07:20:15;99861.13;;;2.61;94.98
74218;BME280;62579;47.288;18.646;2022-12-07T07:22:40;99863.50;;;2.59;94.89
74218;BME280;62579;47.288;18.646;2022-12-07T07:25:06;99864.53;;;2.53;95.28
74218;BME280;62579;47.288;18.646;2022-12-07T07:27:31;99868.47;;;2.70;97.68
74218;BME280;62579;47.288;18.646;2022-12-07T07:29:57;99864.78;;;2.76;96.85
74218;BME280;62579;47.288;18.646;2022-12-07T07:32:22;99862.41;;;2.78;96.01
74218;BME280;62579;47.288;18.646;2022-12-07T07:34:48;99869.28;;;2.79;95.70
74218;BME280;62579;47.288;18.646;2022-12-07T07:37:13;99872.84;;;2.76;95.35
74218;BME280;62579;47.288;18.646;2022-12-07T07:39:39;99873.78;;;2.82;95.34
74218;BME280;62579;47.288;18.646;2022-12-07T07:42:05;99872.72;;;2.89;95.31
74218;BME280;62579;47.288;18.646;2022-12-07T07:44:32;99874.41;;;2.95;95.50
74218;BME280;62579;47.288;18.646;2022-12-07T07:46:58;99875.12;;;2.96;95.79
74218;BME280;62579;47.288;18.646;2022-12-07T07:49:23;99873.06;;;3.00;95.60
74218;BME280;62579;47.288;18.646;2022-12-07T07:51:48;99871.31;;;3.06;95.55
74218;BME280;62579;47.288;18.646;2022-12-07T07:54:14;99868.03;;;3.11;95.70
74218;BME280;62579;47.288;18.646;2022-12-07T07:56:39;99869.84;;;3.23;95.75
74218;BME280;62579;47.288;18.646;2022-12-07T07:59:04;99875.50;;;3.16;96.13
74218;BME280;62579;47.288;18.646;2022-12-07T08:01:30;99878.34;;;3.13;96.45
74218;BME280;62579;47.288;18.646;2022-12-07T08:03:58;99870.47;;;3.27;95.86
74218;BME280;62579;47.288;18.646;2022-12-07T08:06:23;99875.84;;;3.27;95.58
74218;BME280;62579;47.288;18.646;2022-12-07T08:08:48;99874.50;;;3.32;95.71
74218;BME280;62579;47.288;18.646;2022-12-07T08:11:14;99868.22;;;3.35;95.67
74218;BME280;62579;47.288;18.646;2022-12-07T08:13:39;99873.31;;;3.42;95.50
74218;BME280;62579;47.288;18.646;2022-12-07T08:16:07;99878.56;;;3.63;94.44
74218;BME280;62579;47.288;18.646;2022-12-07T08:18:38;99870.63;;;3.51;94.60
74218;BME280;62579;47.288;18.646;2022-12-07T08:21:04;99881.56;;;3.56;94.83
74218;BME280;62579;47.288;18.646;2022-12-07T08:23:30;99883.38;;;3.59;94.94
74218;BME280;62579;47.288;18.646;2022-12-07T08:26:01;99882.00;;;3.64;95.12
74218;BME280;62579;47.288;18.646;2022-12-07T08:28:26;99890.84;;;3.64;95.52
74218;BME280;62579;47.288;18.646;2022-12-07T08:30:51;99891.00;;;3.70;95.59
74218;BME280;62579;47.288;18.646;2022-12-07T08:33:17;99886.31;;;3.52;96.93
74218;BME280;62579;47.288;18.646;2022-12-07T08:35:42;99876.78;;;3.51;97.51
74218;BME280;62579;47.288;18.646;2022-12-07T08:38:07;99882.62;;;3.68;97.13
74218;BME280;62579;47.288;18.646;2022-12-07T08:40:32;99883.22;;;3.72;96.79
74218;BME280;62579;47.288;18.646;2022-12-07T08:42:58;99885.16;;;3.62;97.68
74218;BME280;62579;47.288;18.646;2022-12-07T08:45:24;99885.44;;;3.83;96.84
74218;BME280;62579;47.288;18.646;2022-12-07T08:48:05;99883.97;;;3.91;96.57
74218;BME280;62579;47.288;18.646;2022-12-07T08:50:32;99882.91;;;3.97;96.10
74218;BME280;62579;47.288;18.646;2022-12-07T08:52:58;99883.22;;;3.99;96.22
74218;BME280;62579;47.288;18.646;2022-12-07T08:55:25;99877.69;;;3.94;96.42
74218;BME280;62579;47.288;18.646;2022-12-07T08:57:51;99885.44;;;4.01;96.35
74218;BME280;62579;47.288;18.646;2022-12-07T09:00:17;99896.09;;;3.86;97.50
74218;BME280;62579;47.288;18.646;2022-12-07T09:02:46;99881.13;;;4.03;96.93
74218;BME280;62579;47.288;18.646;2022-12-07T09:05:12;99893.81;;;4.12;96.53
74218;BME280;62579;47.288;18.646;2022-12-07T09:07:40;99895.91;;;4.26;96.13
74218;BME280;62579;47.288;18.646;2022-12-07T09:10:07;99881.97;;;4.37;95.68
74218;BME280;62579;47.288;18.646;2022-12-07T09:12:32;99889.44;;;4.42;95.52
74218;BME280;62579;47.288;18.646;2022-12-07T09:14:58;99884.78;;;4.51;95.27
74218;BME280;62579;47.288;18.646;2022-12-07T09:17:23;99880.09;;;4.61;94.81
74218;BME280;62579;47.288;18.646;2022-12-07T09:19:49;99875.19;;;4.59;94.81
74218;BME280;62579;47.288;18.646;2022-12-07T09:22:14;99867.78;;;4.69;94.68
74218;BME280;62579;47.288;18.646;2022-12-07T09:24:40;99869.44;;;4.75;94.68
74218;BME280;62579;47.288;18.646;2022-12-07T09:27:05;99864.59;;;4.79;94.42
74218;BME280;62579;47.288;18.646;2022-12-07T09:29:30;99870.59;;;4.83;94.42
74218;BME280;62579;47.288;18.646;2022-12-07T09:31:56;99869.06;;;4.92;94.43
74218;BME280;62579;47.288;18.646;2022-12-07T09:34:21;99877.09;;;5.01;94.30
74218;BME280;62579;47.288;18.646;2022-12-07T09:36:47;99869.88;;;5.07;94.32
74218;BME280;62579;47.288;18.646;2022-12-07T09:39:12;99874.34;;;5.10;94.33
74218;BME280;62579;47.288;18.646;2022-12-07T09:41:39;99874.13;;;5.22;93.57
74218;BME280;62579;47.288;18.646;2022-12-07T09:44:10;99869.03;;;5.24;90.93
74218;BME280;62579;47.288;18.646;2022-12-07T09:46:40;99872.59;;;5.30;92.35
74218;BME280;62579;47.288;18.646;2022-12-07T09:49:12;99867.25;;;5.45;92.50
74218;BME280;62579;47.288;18.646;2022-12-07T09:51:39;99875.06;;;5.43;93.47
74218;BME280;62579;47.288;18.646;2022-12-07T09:54:05;99875.75;;;5.53;92.15
74218;BME280;62579;47.288;18.646;2022-12-07T09:56:30;99870.00;;;5.60;90.87
74218;BME280;62579;47.288;18.646;2022-12-07T09:59:00;99868.03;;;5.60;92.11
74218;BME280;62579;47.288;18.646;2022-12-07T10:01:32;99866.94;;;5.67;92.31
74218;BME280;62579;47.288;18.646;2022-12-07T10:04:14;99864.16;;;5.76;90.39
74218;BME280;62579;47.288;18.646;2022-12-07T10:06:41;99860.78;;;5.90;86.58
74218;BME280;62579;47.288;18.646;2022-12-07T10:09:14;99856.78;;;5.85;84.17
74218;BME280;62579;47.288;18.646;2022-12-07T10:12:05;99857.91;;;5.93;83.27
74218;BME280;62579;47.288;18.646;2022-12-07T10:14:34;99857.75;;;5.97;83.62
74218;BME280;62579;47.288;18.646;2022-12-07T10:17:00;99851.47;;;6.05;82.53
74218;BME280;62579;47.288;18.646;2022-12-07T10:24:24;99848.97;;;6.02;83.63
74218;BME280;62579;47.288;18.646;2022-12-07T10:26:52;99840.97;;;6.08;83.27
74218;BME280;62579;47.288;18.646;2022-12-07T10:29:30;99847.50;;;6.16;82.60
74218;BME280;62579;47.288;18.646;2022-12-07T10:32:00;99832.56;;;6.05;82.78
74218;BME280;62579;47.288;18.646;2022-12-07T10:34:29;99842.47;;;6.23;82.18
74218;BME280;62579;47.288;18.646;2022-12-07T10:37:13;99842.47;;;6.23;82.48
74218;BME280;62579;47.288;18.646;2022-12-07T10:39:57;99845.62;;;6.22;82.76
74218;BME280;62579;47.288;18.646;2022-12-07T10:42:30;99841.91;;;6.34;80.07
74218;BME280;62579;47.288;18.646;2022-12-07T10:45:16;99847.22;;;6.28;80.72
74218;BME280;62579;47.288;18.646;2022-12-07T10:50:40;99837.97;;;6.35;80.14
74218;BME280;62579;47.288;18.646;2022-12-07T11:01:59;99823.63;;;6.43;80.23
74218;BME280;62579;47.288;18.646;2022-12-07T11:04:43;99824.94;;;6.33;80.30
74218;BME280;62579;47.288;18.646;2022-12-07T11:10:02;99822.09;;;6.57;79.47
74218;BME280;62579;47.288;18.646;2022-12-07T11:20:52;99822.94;;;6.63;77.05
74218;BME280;62579;47.288;18.646;2022-12-07T11:26:32;99817.81;;;6.65;78.99
74218;BME280;62579;47.288;18.646;2022-12-07T11:34:39;99821.00;;;6.49;77.65
74218;BME280;62579;47.288;18.646;2022-12-07T11:37:14;99821.47;;;6.47;78.80
74218;BME280;62579;47.288;18.646;2022-12-07T11:39:49;99825.03;;;6.53;78.75
74218;BME280;62579;47.288;18.646;2022-12-07T11:42:25;99822.50;;;6.50;79.17
74218;BME280;62579;47.288;18.646;2022-12-07T11:44:56;99818.44;;;6.40;80.77
74218;BME280;62579;47.288;18.646;2022-12-07T11:53:25;99822.69;;;6.61;80.35
74218;BME280;62579;47.288;18.646;2022-12-07T11:56:00;99810.44;;;6.65;78.73
74218;BME280;62579;47.288;18.646;2022-12-07T11:58:38;99814.28;;;6.59;78.91
74218;BME280;62579;47.288;18.646;2022-12-07T12:03:37;99805.13;;;6.56;77.23
74218;BME280;62579;47.288;18.646;2022-12-07T12:06:05;99807.03;;;6.50;76.73
74218;BME280;62579;47.288;18.646;2022-12-07T12:08:39;99803.00;;;6.46;78.34
74218;BME280;62579;47.288;18.646;2022-12-07T12:11:39;99801.97;;;6.58;79.17
74218;BME280;62579;47.288;18.646;2022-12-07T12:14:18;99800.28;;;6.60;78.87
74218;BME280;62579;47.288;18.646;2022-12-07T12:19:23;99779.69;;;6.63;75.61
74218;BME280;62579;47.288;18.646;2022-12-07T12:21:56;99772.66;;;6.71;75.08
74218;BME280;62579;47.288;18.646;2022-12-07T12:24:26;99772.25;;;6.78;75.52
74218;BME280;62579;47.288;18.646;2022-12-07T12:27:14;99770.97;;;6.74;77.63
74218;BME280;62579;47.288;18.646;2022-12-07T12:29:43;99762.59;;;6.72;78.33
74218;BME280;62579;47.288;18.646;2022-12-07T12:32:16;99768.75;;;6.92;77.40
74218;BME280;62579;47.288;18.646;2022-12-07T12:42:49;99755.56;;;6.80;76.70
74218;BME280;62579;47.288;18.646;2022-12-07T12:45:34;99760.25;;;6.79;76.81
74218;BME280;62579;47.288;18.646;2022-12-07T14:11:53;99789.72;;;5.98;68.64
74218;BME280;62579;47.288;18.646;2022-12-07T14:14:30;99788.72;;;5.96;68.19
74218;BME280;62579;47.288;18.646;2022-12-07T14:16:57;99797.84;;;5.98;68.09
74218;BME280;62579;47.288;18.646;2022-12-07T14:22:20;99790.66;;;5.95;66.63
74218;BME280;62579;47.288;18.646;2022-12-07T14:24:46;99800.38;;;5.78;68.86
74218;BME280;62579;47.288;18.646;2022-12-07T14:27:20;99791.84;;;5.80;70.17
74218;BME280;62579;47.288;18.646;2022-12-07T14:29:46;99793.25;;;5.90;70.14
74218;BME280;62579;47.288;18.646;2022-12-07T14:32:24;99799.75;;;5.83;70.01
74218;BME280;62579;47.288;18.646;2022-12-07T14:35:02;99799.09;;;5.74;69.57
74218;BME280;62579;47.288;18.646;2022-12-07T14:37:29;99796.22;;;5.77;69.30
74218;BME280;62579;47.288;18.646;2022-12-07T14:39:55;99798.91;;;5.77;68.64
74218;BME280;62579;47.288;18.646;2022-12-07T14:44:50;99808.00;;;5.89;67.17
74218;BME280;62579;47.288;18.646;2022-12-07T14:47:15;99808.59;;;5.84;68.25
74218;BME280;62579;47.288;18.646;2022-12-07T14:49:41;99808.72;;;5.89;68.74
74218;BME280;62579;47.288;18.646;2022-12-07T14:52:13;99816.69;;;5.84;69.34
74218;BME280;62579;47.288;18.646;2022-12-07T14:54:41;99813.16;;;5.78;69.96
74218;BME280;62579;47.288;18.646;2022-12-07T14:57:08;99813.84;;;5.87;69.52
74218;BME280;62579;47.288;18.646;2022-12-07T14:59:34;99803.47;;;5.71;nan
74218;BME280;62579;47.288;18.646;2022-12-07T15:01:59;99806.84;;;5.81;69.62
74218;BME280;62579;47.288;18.646;2022-12-07T15:04:25;99810.13;;;5.85;68.89
74218;BME280;62579;47.288;18.646;2022-12-07T15:06:58;99812.22;;;5.66;69.10
74218;BME280;62579;47.288;18.646;2022-12-07T15:09:24;99811.00;;;5.82;68.16
74218;BME280;62579;47.288;18.646;2022-12-07T15:11:49;99816.91;;;5.80;67.65
74218;BME280;62579;47.288;18.646;2022-12-07T15:14:14;99815.03;;;5.86;68.50
74218;BME280;62579;47.288;18.646;2022-12-07T15:16:41;99816.03;;;5.74;67.74
74218;BME280;62579;47.288;18.646;2022-12-07T15:19:12;99821.97;;;5.64;68.59
74218;BME280;62579;47.288;18.646;2022-12-07T15:21:38;99824.88;;;5.75;68.04
74218;BME280;62579;47.288;18.646;2022-12-07T15:24:04;99831.75;;;5.76;68.62
74218;BME280;62579;47.288;18.646;2022-12-07T15:26:49;99840.41;;;5.65;68.86
74218;BME280;62579;47.288;18.646;2022-12-07T15:29:15;99839.38;;;5.63;69.26
74218;BME280;62579;47.288;18.646;2022-12-07T15:31:41;99828.66;;;5.54;69.32
74218;BME280;62579;47.288;18.646;2022-12-07T15:34:06;99825.78;;;5.57;69.27
74218;BME280;62579;47.288;18.646;2022-12-07T15:36:33;99825.66;;;5.52;69.62
74218;BME280;62579;47.288;18.646;2022-12-07T15:38:59;99815.97;;;5.45;69.63
74218;BME280;62579;47.288;18.646;2022-12-07T15:41:25;99822.19;;;5.36;70.48
74218;BME280;62579;47.288;18.646;2022-12-07T15:43:50;99823.50;;;5.41;70.98
74218;BME280;62579;47.288;18.646;2022-12-07T15:46:37;99826.94;;;5.41;70.25
74218;BME280;62579;47.288;18.646;2022-12-07T15:49:09;99820.13;;;5.31;71.33
74218;BME280;62579;47.288;18.646;2022-12-07T15:51:41;99830.34;;;5.27;71.50
74218;BME280;62579;47.288;18.646;2022-12-07T15:54:07;99835.59;;;5.22;71.66
74218;BME280;62579;47.288;18.646;2022-12-07T15:56:32;99833.78;;;5.28;71.94